aviador You're here:

OISY Decoded Metar

in _UNIDENTIFIED
Report Time2017-12-11 09:00:00
UTC Time2017-12-11 09:19:00
Flight Rules vfr VFR
WindCalm
Visibility9999 m
Phenomena:N/A
Clouds:N/A
Expected CloudBase > 10,800 ft AGL from Temp-Dew spread
CeilingNone
Temp12°C
Dew Point-15°C (14% RH)
AAT8.6°C
QNH1025 hPa
Raw Report
METAR OISY 110900Z 00000KT CAVOK 12/M15 Q1025=

Extra information for OISY:More info

Metar Taf Metar & Taf Last 4 Metars F.Rules Stats Wind Profile Meteogram Temp Stats Metar ALERT Operation Metar Decoded Social comments